KWST/WST METAR and TAF weather

Enter ICAO airport designator
Station Type Date Time Source
KWST METAR 2021/09/28 04:53 UTC NOAA

KWST 280453Z AUTO 22011G16KT 10SM OVC100 20/17 A2986 RMK AO2 SLP112 T02000172 402170083


Station Type Date Time Source
KWST Decoded METAR 2021/09/28 04:53 UTC NOAA

WESTERLY STATE AIRPORT, RI, United States (KWST) 41-21N 071-48W 21M
Sep 28, 2021 - 12:53 AM EDT / 2021.09.28 0453 UTC
Wind: from the SW (220 degrees) at 13 MPH (11 KT) gusting to 18 MPH (16 KT):0
Visibility: 10 mile(s):0
Sky conditions: overcast
Temperature: 68.0 F (20.0 C)
Dew Point: 63.0 F (17.2 C)
Relative Humidity: 83%
Pressure (altimeter): 29.86 in. Hg (1011 hPa)
ob: KWST 280453Z AUTO 22011G16KT 10SM OVC100 20/17 A2986 RMK AO2 SLP112 T02000172 402170083
cycle: 5

Station Type Date Time Source
KWST TAF UTC NOAA

Error!

Example: see airport list